sensor_id;sensor_type;location;lat;lon;timestamp;P1;durP1;ratioP1;P2;durP2;ratioP2
7661;SDS011;30314;48.184;11.510;2024-01-11T00:01:34;70.93;;;22.70;;
7661;SDS011;30314;48.184;11.510;2024-01-11T00:04:00;56.80;;;20.00;;
7661;SDS011;30314;48.184;11.510;2024-01-11T00:06:26;51.13;;;17.70;;
7661;SDS011;30314;48.184;11.510;2024-01-11T00:08:53;70.50;;;20.40;;
7661;SDS011;30314;48.184;11.510;2024-01-11T00:11:20;49.97;;;18.60;;
7661;SDS011;30314;48.184;11.510;2024-01-11T00:13:46;59.80;;;19.43;;
7661;SDS011;30314;48.184;11.510;2024-01-11T00:16:13;51.03;;;18.20;;
7661;SDS011;30314;48.184;11.510;2024-01-11T00:18:39;66.53;;;21.70;;
7661;SDS011;30314;48.184;11.510;2024-01-11T00:21:06;65.97;;;21.97;;
7661;SDS011;30314;48.184;11.510;2024-01-11T00:23:32;60.33;;;21.03;;
7661;SDS011;30314;48.184;11.510;2024-01-11T00:25:59;67.40;;;21.30;;
7661;SDS011;30314;48.184;11.510;2024-01-11T00:28:26;68.67;;;21.20;;
7661;SDS011;30314;48.184;11.510;2024-01-11T00:30:52;45.10;;;18.40;;
7661;SDS011;30314;48.184;11.510;2024-01-11T00:33:19;78.97;;;22.20;;
7661;SDS011;30314;48.184;11.510;2024-01-11T00:35:45;73.97;;;23.80;;
7661;SDS011;30314;48.184;11.510;2024-01-11T00:38:12;75.63;;;21.70;;
7661;SDS011;30314;48.184;11.510;2024-01-11T00:40:39;63.07;;;21.60;;
7661;SDS011;30314;48.184;11.510;2024-01-11T00:43:05;76.23;;;22.93;;
7661;SDS011;30314;48.184;11.510;2024-01-11T00:45:32;72.27;;;22.80;;
7661;SDS011;30314;48.184;11.510;2024-01-11T00:47:58;69.67;;;22.20;;
7661;SDS011;30314;48.184;11.510;2024-01-11T00:50:25;73.33;;;20.30;;
7661;SDS011;30314;48.184;11.510;2024-01-11T00:52:51;54.50;;;19.90;;
7661;SDS011;30314;48.184;11.510;2024-01-11T00:55:18;54.67;;;19.70;;
7661;SDS011;30314;48.184;11.510;2024-01-11T00:57:44;55.87;;;18.10;;
7661;SDS011;30314;48.184;11.510;2024-01-11T01:00:11;68.50;;;21.00;;
7661;SDS011;30314;48.184;11.510;2024-01-11T01:02:41;49.97;;;18.97;;
7661;SDS011;30314;48.184;11.510;2024-01-11T01:05:08;50.97;;;19.97;;
7661;SDS011;30314;48.184;11.510;2024-01-11T01:07:35;55.87;;;19.60;;
7661;SDS011;30314;48.184;11.510;2024-01-11T01:10:01;68.03;;;21.30;;
7661;SDS011;30314;48.184;11.510;2024-01-11T01:12:28;58.13;;;20.50;;
7661;SDS011;30314;48.184;11.510;2024-01-11T01:14:56;69.27;;;21.20;;
7661;SDS011;30314;48.184;11.510;2024-01-11T01:17:22;64.10;;;19.63;;
7661;SDS011;30314;48.184;11.510;2024-01-11T01:19:49;55.97;;;18.67;;
7661;SDS011;30314;48.184;11.510;2024-01-11T01:22:15;56.23;;;17.93;;
7661;SDS011;30314;48.184;11.510;2024-01-11T01:24:42;62.37;;;21.70;;
7661;SDS011;30314;48.184;11.510;2024-01-11T01:27:08;53.97;;;19.73;;
7661;SDS011;30314;48.184;11.510;2024-01-11T01:29:35;47.27;;;17.50;;
7661;SDS011;30314;48.184;11.510;2024-01-11T01:32:01;64.20;;;19.20;;
7661;SDS011;30314;48.184;11.510;2024-01-11T01:34:29;56.03;;;18.00;;
7661;SDS011;30314;48.184;11.510;2024-01-11T01:36:56;51.87;;;17.67;;
7661;SDS011;30314;48.184;11.510;2024-01-11T01:39:23;62.63;;;20.07;;
7661;SDS011;30314;48.184;11.510;2024-01-11T01:41:49;58.20;;;18.17;;
7661;SDS011;30314;48.184;11.510;2024-01-11T01:44:16;56.40;;;18.30;;
7661;SDS011;30314;48.184;11.510;2024-01-11T01:46:42;48.00;;;17.10;;
7661;SDS011;30314;48.184;11.510;2024-01-11T01:49:09;39.83;;;15.67;;
7661;SDS011;30314;48.184;11.510;2024-01-11T01:51:37;51.33;;;17.70;;
7661;SDS011;30314;48.184;11.510;2024-01-11T01:54:04;66.77;;;22.33;;
7661;SDS011;30314;48.184;11.510;2024-01-11T01:56:31;62.47;;;21.07;;
7661;SDS011;30314;48.184;11.510;2024-01-11T01:58:58;59.63;;;21.00;;
7661;SDS011;30314;48.184;11.510;2024-01-11T02:01:27;76.07;;;21.23;;
7661;SDS011;30314;48.184;11.510;2024-01-11T02:03:54;58.70;;;20.87;;
7661;SDS011;30314;48.184;11.510;2024-01-11T02:06:21;54.50;;;19.73;;
7661;SDS011;30314;48.184;11.510;2024-01-11T02:08:51;68.37;;;18.27;;
7661;SDS011;30314;48.184;11.510;2024-01-11T02:11:20;55.23;;;19.43;;
7661;SDS011;30314;48.184;11.510;2024-01-11T02:13:47;47.10;;;18.30;;
7661;SDS011;30314;48.184;11.510;2024-01-11T02:16:15;53.00;;;18.70;;
7661;SDS011;30314;48.184;11.510;2024-01-11T02:18:41;50.03;;;18.97;;
7661;SDS011;30314;48.184;11.510;2024-01-11T02:21:09;58.23;;;19.47;;
7661;SDS011;30314;48.184;11.510;2024-01-11T02:23:44;54.80;;;18.37;;
7661;SDS011;30314;48.184;11.510;2024-01-11T02:26:15;54.80;;;18.97;;
7661;SDS011;30314;48.184;11.510;2024-01-11T02:28:43;61.57;;;19.13;;
7661;SDS011;30314;48.184;11.510;2024-01-11T02:31:14;61.33;;;20.40;;
7661;SDS011;30314;48.184;11.510;2024-01-11T02:33:40;62.50;;;21.13;;
7661;SDS011;30314;48.184;11.510;2024-01-11T02:36:08;59.73;;;18.07;;
7661;SDS011;30314;48.184;11.510;2024-01-11T02:38:34;55.97;;;19.23;;
7661;SDS011;30314;48.184;11.510;2024-01-11T02:41:02;55.17;;;19.20;;
7661;SDS011;30314;48.184;11.510;2024-01-11T02:43:29;54.87;;;17.20;;
7661;SDS011;30314;48.184;11.510;2024-01-11T02:45:56;51.03;;;18.30;;
7661;SDS011;30314;48.184;11.510;2024-01-11T02:48:30;52.47;;;17.30;;
7661;SDS011;30314;48.184;11.510;2024-01-11T02:50:57;62.90;;;19.13;;
7661;SDS011;30314;48.184;11.510;2024-01-11T02:53:24;39.63;;;16.80;;
7661;SDS011;30314;48.184;11.510;2024-01-11T02:55:50;48.67;;;16.53;;
7661;SDS011;30314;48.184;11.510;2024-01-11T02:58:17;42.47;;;17.10;;
7661;SDS011;30314;48.184;11.510;2024-01-11T03:00:43;43.27;;;15.27;;
7661;SDS011;30314;48.184;11.510;2024-01-11T03:03:10;53.43;;;20.00;;
7661;SDS011;30314;48.184;11.510;2024-01-11T03:05:37;43.50;;;17.70;;
7661;SDS011;30314;48.184;11.510;2024-01-11T03:08:04;49.30;;;17.60;;
7661;SDS011;30314;48.184;11.510;2024-01-11T03:10:31;59.07;;;16.80;;
7661;SDS011;30314;48.184;11.510;2024-01-11T03:12:57;41.37;;;14.70;;
7661;SDS011;30314;48.184;11.510;2024-01-11T03:15:24;43.40;;;16.27;;
7661;SDS011;30314;48.184;11.510;2024-01-11T03:17:50;48.67;;;15.67;;
7661;SDS011;30314;48.184;11.510;2024-01-11T03:20:17;38.53;;;13.60;;
7661;SDS011;30314;48.184;11.510;2024-01-11T03:22:46;32.30;;;12.73;;
7661;SDS011;30314;48.184;11.510;2024-01-11T03:25:13;35.23;;;14.13;;
7661;SDS011;30314;48.184;11.510;2024-01-11T03:27:40;44.23;;;15.97;;
7661;SDS011;30314;48.184;11.510;2024-01-11T03:30:06;48.60;;;17.40;;
7661;SDS011;30314;48.184;11.510;2024-01-11T03:32:33;38.60;;;13.97;;
7661;SDS011;30314;48.184;11.510;2024-01-11T03:35:00;39.57;;;16.30;;
7661;SDS011;30314;48.184;11.510;2024-01-11T03:37:27;40.83;;;15.60;;
7661;SDS011;30314;48.184;11.510;2024-01-11T03:39:53;34.90;;;17.27;;
7661;SDS011;30314;48.184;11.510;2024-01-11T03:42:20;37.90;;;14.83;;
7661;SDS011;30314;48.184;11.510;2024-01-11T03:44:46;39.03;;;15.20;;
7661;SDS011;30314;48.184;11.510;2024-01-11T03:47:13;43.17;;;16.40;;
7661;SDS011;30314;48.184;11.510;2024-01-11T03:49:40;42.27;;;16.57;;
7661;SDS011;30314;48.184;11.510;2024-01-11T03:52:06;41.37;;;16.57;;
7661;SDS011;30314;48.184;11.510;2024-01-11T03:54:33;39.73;;;16.73;;
7661;SDS011;30314;48.184;11.510;2024-01-11T03:56:59;42.03;;;15.87;;
7661;SDS011;30314;48.184;11.510;2024-01-11T03:59:26;41.87;;;16.07;;
7661;SDS011;30314;48.184;11.510;2024-01-11T04:01:53;42.10;;;16.63;;
7661;SDS011;30314;48.184;11.510;2024-01-11T04:04:20;53.23;;;20.30;;
7661;SDS011;30314;48.184;11.510;2024-01-11T04:06:46;41.47;;;16.33;;
7661;SDS011;30314;48.184;11.510;2024-01-11T04:09:13;49.73;;;19.70;;
7661;SDS011;30314;48.184;11.510;2024-01-11T04:11:39;45.50;;;18.07;;
7661;SDS011;30314;48.184;11.510;2024-01-11T04:14:06;47.47;;;16.37;;
7661;SDS011;30314;48.184;11.510;2024-01-11T04:16:33;41.50;;;16.97;;
7661;SDS011;30314;48.184;11.510;2024-01-11T04:18:59;48.50;;;18.73;;
7661;SDS011;30314;48.184;11.510;2024-01-11T04:21:26;47.57;;;17.40;;
7661;SDS011;30314;48.184;11.510;2024-01-11T04:23:56;41.77;;;17.20;;
7661;SDS011;30314;48.184;11.510;2024-01-11T04:26:23;46.03;;;18.33;;
7661;SDS011;30314;48.184;11.510;2024-01-11T04:28:50;43.87;;;18.87;;
7661;SDS011;30314;48.184;11.510;2024-01-11T04:31:20;44.03;;;18.30;;
7661;SDS011;30314;48.184;11.510;2024-01-11T04:33:46;46.50;;;18.97;;
7661;SDS011;30314;48.184;11.510;2024-01-11T04:36:13;47.33;;;17.40;;
7661;SDS011;30314;48.184;11.510;2024-01-11T04:38:40;68.13;;;20.90;;
7661;SDS011;30314;48.184;11.510;2024-01-11T04:41:09;53.20;;;20.30;;
7661;SDS011;30314;48.184;11.510;2024-01-11T04:43:37;52.93;;;20.00;;
7661;SDS011;30314;48.184;11.510;2024-01-11T04:46:15;47.73;;;19.63;;
7661;SDS011;30314;48.184;11.510;2024-01-11T04:48:42;68.30;;;21.93;;
7661;SDS011;30314;48.184;11.510;2024-01-11T04:51:09;64.73;;;21.67;;
7661;SDS011;30314;48.184;11.510;2024-01-11T04:53:37;77.90;;;22.83;;
7661;SDS011;30314;48.184;11.510;2024-01-11T04:56:06;62.40;;;19.57;;
7661;SDS011;30314;48.184;11.510;2024-01-11T04:58:34;65.17;;;22.57;;
7661;SDS011;30314;48.184;11.510;2024-01-11T05:01:01;62.67;;;22.20;;
7661;SDS011;30314;48.184;11.510;2024-01-11T05:03:28;62.53;;;22.73;;
7661;SDS011;30314;48.184;11.510;2024-01-11T05:05:55;74.47;;;25.30;;
7661;SDS011;30314;48.184;11.510;2024-01-11T05:08:22;64.07;;;21.00;;
7661;SDS011;30314;48.184;11.510;2024-01-11T05:10:49;59.83;;;20.23;;
7661;SDS011;30314;48.184;11.510;2024-01-11T05:13:17;73.73;;;23.23;;
7661;SDS011;30314;48.184;11.510;2024-01-11T05:15:44;69.40;;;21.80;;
7661;SDS011;30314;48.184;11.510;2024-01-11T05:18:12;64.27;;;21.67;;
7661;SDS011;30314;48.184;11.510;2024-01-11T05:20:40;72.37;;;23.17;;
7661;SDS011;30314;48.184;11.510;2024-01-11T05:23:07;67.20;;;21.03;;
7661;SDS011;30314;48.184;11.510;2024-01-11T05:25:34;54.13;;;19.67;;
7661;SDS011;30314;48.184;11.510;2024-01-11T05:28:01;64.57;;;22.77;;
7661;SDS011;30314;48.184;11.510;2024-01-11T05:30:29;64.03;;;22.30;;
7661;SDS011;30314;48.184;11.510;2024-01-11T05:32:57;62.67;;;21.40;;
7661;SDS011;30314;48.184;11.510;2024-01-11T05:35:24;61.90;;;20.93;;
7661;SDS011;30314;48.184;11.510;2024-01-11T05:37:53;62.03;;;23.27;;
7661;SDS011;30314;48.184;11.510;2024-01-11T05:40:23;68.03;;;20.47;;
7661;SDS011;30314;48.184;11.510;2024-01-11T05:42:49;64.63;;;20.90;;
7661;SDS011;30314;48.184;11.510;2024-01-11T05:45:16;61.97;;;21.43;;
7661;SDS011;30314;48.184;11.510;2024-01-11T05:47:47;48.93;;;20.33;;
7661;SDS011;30314;48.184;11.510;2024-01-11T05:50:14;58.83;;;22.07;;
7661;SDS011;30314;48.184;11.510;2024-01-11T05:52:41;60.30;;;21.33;;
7661;SDS011;30314;48.184;11.510;2024-01-11T05:55:08;55.13;;;19.30;;
7661;SDS011;30314;48.184;11.510;2024-01-11T05:57:35;58.67;;;19.37;;
7661;SDS011;30314;48.184;11.510;2024-01-11T06:00:01;60.63;;;21.33;;
7661;SDS011;30314;48.184;11.510;2024-01-11T06:02:31;66.13;;;21.07;;
7661;SDS011;30314;48.184;11.510;2024-01-11T06:04:58;57.30;;;20.30;;
7661;SDS011;30314;48.184;11.510;2024-01-11T06:07:25;64.43;;;21.50;;
7661;SDS011;30314;48.184;11.510;2024-01-11T06:09:52;52.60;;;18.60;;
7661;SDS011;30314;48.184;11.510;2024-01-11T06:12:19;57.43;;;19.27;;
7661;SDS011;30314;48.184;11.510;2024-01-11T06:14:46;45.30;;;20.03;;
7661;SDS011;30314;48.184;11.510;2024-01-11T06:17:13;55.83;;;21.13;;
7661;SDS011;30314;48.184;11.510;2024-01-11T06:19:40;58.83;;;21.37;;
7661;SDS011;30314;48.184;11.510;2024-01-11T06:22:06;53.43;;;21.27;;
7661;SDS011;30314;48.184;11.510;2024-01-11T06:24:33;54.87;;;19.00;;
7661;SDS011;30314;48.184;11.510;2024-01-11T06:26:59;60.50;;;19.03;;
7661;SDS011;30314;48.184;11.510;2024-01-11T06:29:27;60.43;;;21.77;;
7661;SDS011;30314;48.184;11.510;2024-01-11T06:31:54;54.90;;;19.70;;
7661;SDS011;30314;48.184;11.510;2024-01-11T06:34:20;58.37;;;20.40;;
7661;SDS011;30314;48.184;11.510;2024-01-11T06:36:47;57.57;;;21.27;;
7661;SDS011;30314;48.184;11.510;2024-01-11T06:39:13;70.13;;;24.00;;
7661;SDS011;30314;48.184;11.510;2024-01-11T06:41:40;72.20;;;24.07;;
7661;SDS011;30314;48.184;11.510;2024-01-11T06:44:06;63.77;;;23.33;;
7661;SDS011;30314;48.184;11.510;2024-01-11T06:46:33;57.20;;;22.07;;
7661;SDS011;30314;48.184;11.510;2024-01-11T06:48:59;81.60;;;23.00;;
7661;SDS011;30314;48.184;11.510;2024-01-11T06:51:27;74.27;;;24.10;;
7661;SDS011;30314;48.184;11.510;2024-01-11T06:53:53;73.57;;;22.50;;
7661;SDS011;30314;48.184;11.510;2024-01-11T06:56:20;65.00;;;22.93;;
7661;SDS011;30314;48.184;11.510;2024-01-11T06:58:50;75.40;;;22.50;;
7661;SDS011;30314;48.184;11.510;2024-01-11T07:01:17;61.73;;;20.40;;
7661;SDS011;30314;48.184;11.510;2024-01-11T07:03:43;71.53;;;22.00;;
7661;SDS011;30314;48.184;11.510;2024-01-11T07:06:11;62.13;;;22.90;;
7661;SDS011;30314;48.184;11.510;2024-01-11T07:08:38;66.80;;;23.83;;
7661;SDS011;30314;48.184;11.510;2024-01-11T07:11:05;56.77;;;21.87;;
7661;SDS011;30314;48.184;11.510;2024-01-11T07:13:31;70.47;;;22.60;;
7661;SDS011;30314;48.184;11.510;2024-01-11T07:15:58;71.30;;;25.23;;
7661;SDS011;30314;48.184;11.510;2024-01-11T07:18:25;74.57;;;24.80;;
7661;SDS011;30314;48.184;11.510;2024-01-11T07:20:52;70.97;;;23.60;;
7661;SDS011;30314;48.184;11.510;2024-01-11T07:23:19;69.97;;;22.80;;
7661;SDS011;30314;48.184;11.510;2024-01-11T07:25:46;74.73;;;23.93;;
7661;SDS011;30314;48.184;11.510;2024-01-11T07:28:13;68.63;;;24.93;;
7661;SDS011;30314;48.184;11.510;2024-01-11T07:30:40;60.33;;;23.10;;
7661;SDS011;30314;48.184;11.510;2024-01-11T07:33:07;61.03;;;23.37;;
7661;SDS011;30314;48.184;11.510;2024-01-11T07:35:36;86.00;;;22.40;;
7661;SDS011;30314;48.184;11.510;2024-01-11T07:38:02;71.67;;;22.40;;
7661;SDS011;30314;48.184;11.510;2024-01-11T07:40:29;80.90;;;24.40;;
7661;SDS011;30314;48.184;11.510;2024-01-11T07:43:00;65.60;;;22.10;;
7661;SDS011;30314;48.184;11.510;2024-01-11T07:45:27;75.70;;;25.47;;
7661;SDS011;30314;48.184;11.510;2024-01-11T07:47:53;58.97;;;22.37;;
7661;SDS011;30314;48.184;11.510;2024-01-11T07:50:20;69.93;;;21.87;;
7661;SDS011;30314;48.184;11.510;2024-01-11T07:52:47;65.77;;;21.47;;
7661;SDS011;30314;48.184;11.510;2024-01-11T07:55:13;65.60;;;20.97;;
7661;SDS011;30314;48.184;11.510;2024-01-11T07:57:40;66.20;;;21.50;;
7661;SDS011;30314;48.184;11.510;2024-01-11T08:00:07;65.17;;;20.87;;
7661;SDS011;30314;48.184;11.510;2024-01-11T08:02:39;77.67;;;21.57;;
7661;SDS011;30314;48.184;11.510;2024-01-11T08:05:06;93.80;;;23.23;;
7661;SDS011;30314;48.184;11.510;2024-01-11T08:07:34;73.03;;;23.37;;
7661;SDS011;30314;48.184;11.510;2024-01-11T08:10:01;64.67;;;21.40;;
7661;SDS011;30314;48.184;11.510;2024-01-11T08:12:30;73.67;;;21.93;;
7661;SDS011;30314;48.184;11.510;2024-01-11T08:14:56;66.70;;;23.90;;
7661;SDS011;30314;48.184;11.510;2024-01-11T08:17:23;80.40;;;24.73;;
7661;SDS011;30314;48.184;11.510;2024-01-11T08:19:50;75.10;;;23.77;;
7661;SDS011;30314;48.184;11.510;2024-01-11T08:22:17;82.17;;;26.90;;
7661;SDS011;30314;48.184;11.510;2024-01-11T08:24:44;63.63;;;22.67;;
7661;SDS011;30314;48.184;11.510;2024-01-11T08:27:11;59.40;;;23.20;;
7661;SDS011;30314;48.184;11.510;2024-01-11T08:29:37;76.87;;;22.67;;
7661;SDS011;30314;48.184;11.510;2024-01-11T08:32:05;79.17;;;24.63;;
7661;SDS011;30314;48.184;11.510;2024-01-11T08:34:49;85.17;;;24.67;;
7661;SDS011;30314;48.184;11.510;2024-01-11T08:37:16;71.17;;;23.57;;
7661;SDS011;30314;48.184;11.510;2024-01-11T08:39:43;70.70;;;24.07;;
7661;SDS011;30314;48.184;11.510;2024-01-11T08:42:09;91.73;;;25.73;;
7661;SDS011;30314;48.184;11.510;2024-01-11T08:44:36;80.20;;;25.60;;
7661;SDS011;30314;48.184;11.510;2024-01-11T08:47:03;74.50;;;25.50;;
7661;SDS011;30314;48.184;11.510;2024-01-11T08:49:30;66.37;;;24.87;;
7661;SDS011;30314;48.184;11.510;2024-01-11T08:51:56;74.87;;;24.27;;
7661;SDS011;30314;48.184;11.510;2024-01-11T08:54:23;64.80;;;22.07;;
7661;SDS011;30314;48.184;11.510;2024-01-11T08:56:50;72.60;;;26.03;;
7661;SDS011;30314;48.184;11.510;2024-01-11T08:59:16;70.27;;;22.47;;
7661;SDS011;30314;48.184;11.510;2024-01-11T09:01:43;71.87;;;23.73;;
7661;SDS011;30314;48.184;11.510;2024-01-11T09:04:26;74.90;;;25.37;;
7661;SDS011;30314;48.184;11.510;2024-01-11T09:06:56;81.47;;;25.70;;
7661;SDS011;30314;48.184;11.510;2024-01-11T09:09:22;72.00;;;25.23;;
7661;SDS011;30314;48.184;11.510;2024-01-11T09:11:49;78.40;;;30.80;;
7661;SDS011;30314;48.184;11.510;2024-01-11T09:14:16;81.00;;;23.97;;
7661;SDS011;30314;48.184;11.510;2024-01-11T09:16:43;63.63;;;23.10;;
7661;SDS011;30314;48.184;11.510;2024-01-11T09:19:11;67.17;;;23.83;;
7661;SDS011;30314;48.184;11.510;2024-01-11T09:21:38;74.10;;;25.30;;
7661;SDS011;30314;48.184;11.510;2024-01-11T09:24:05;69.80;;;23.30;;
7661;SDS011;30314;48.184;11.510;2024-01-11T09:26:31;58.50;;;23.70;;
7661;SDS011;30314;48.184;11.510;2024-01-11T09:28:58;57.93;;;23.10;;
7661;SDS011;30314;48.184;11.510;2024-01-11T09:31:25;67.80;;;23.87;;
7661;SDS011;30314;48.184;11.510;2024-01-11T09:33:51;75.10;;;26.77;;
7661;SDS011;30314;48.184;11.510;2024-01-11T09:36:19;63.80;;;22.33;;
7661;SDS011;30314;48.184;11.510;2024-01-11T09:38:45;60.83;;;22.33;;
7661;SDS011;30314;48.184;11.510;2024-01-11T09:41:12;61.27;;;22.17;;
7661;SDS011;30314;48.184;11.510;2024-01-11T09:43:40;69.67;;;25.67;;
7661;SDS011;30314;48.184;11.510;2024-01-11T09:46:09;59.27;;;22.23;;
7661;SDS011;30314;48.184;11.510;2024-01-11T09:48:40;66.13;;;23.33;;
7661;SDS011;30314;48.184;11.510;2024-01-11T09:51:10;65.00;;;24.80;;
7661;SDS011;30314;48.184;11.510;2024-01-11T09:53:40;70.97;;;25.07;;
7661;SDS011;30314;48.184;11.510;2024-01-11T09:56:09;81.07;;;28.43;;
7661;SDS011;30314;48.184;11.510;2024-01-11T09:58:36;70.27;;;24.70;;
7661;SDS011;30314;48.184;11.510;2024-01-11T10:01:07;68.73;;;23.57;;
7661;SDS011;30314;48.184;11.510;2024-01-11T10:03:42;76.50;;;24.80;;
7661;SDS011;30314;48.184;11.510;2024-01-11T10:06:10;82.43;;;24.53;;
7661;SDS011;30314;48.184;11.510;2024-01-11T10:08:37;60.90;;;22.43;;
7661;SDS011;30314;48.184;11.510;2024-01-11T10:11:04;67.43;;;23.47;;
7661;SDS011;30314;48.184;11.510;2024-01-11T10:13:31;84.60;;;23.77;;
7661;SDS011;30314;48.184;11.510;2024-01-11T10:16:08;65.67;;;25.07;;
7661;SDS011;30314;48.184;11.510;2024-01-11T10:18:36;69.50;;;24.27;;
7661;SDS011;30314;48.184;11.510;2024-01-11T10:21:03;66.60;;;22.83;;
7661;SDS011;30314;48.184;11.510;2024-01-11T10:23:32;78.30;;;25.80;;
7661;SDS011;30314;48.184;11.510;2024-01-11T10:26:00;72.20;;;24.90;;
7661;SDS011;30314;48.184;11.510;2024-01-11T10:28:26;74.30;;;22.10;;
7661;SDS011;30314;48.184;11.510;2024-01-11T10:30:53;76.97;;;26.00;;
7661;SDS011;30314;48.184;11.510;2024-01-11T10:33:22;75.40;;;24.67;;
7661;SDS011;30314;48.184;11.510;2024-01-11T10:35:49;68.30;;;24.97;;
7661;SDS011;30314;48.184;11.510;2024-01-11T10:38:17;64.27;;;23.17;;
7661;SDS011;30314;48.184;11.510;2024-01-11T10:40:44;56.77;;;22.00;;
7661;SDS011;30314;48.184;11.510;2024-01-11T10:43:12;66.47;;;21.73;;
7661;SDS011;30314;48.184;11.510;2024-01-11T10:45:45;61.27;;;23.20;;
7661;SDS011;30314;48.184;11.510;2024-01-11T10:48:15;68.80;;;22.47;;
7661;SDS011;30314;48.184;11.510;2024-01-11T10:50:44;63.40;;;23.20;;
7661;SDS011;30314;48.184;11.510;2024-01-11T10:53:25;55.30;;;20.63;;
7661;SDS011;30314;48.184;11.510;2024-01-11T10:56:03;65.07;;;22.10;;
7661;SDS011;30314;48.184;11.510;2024-01-11T10:58:33;64.03;;;22.37;;
7661;SDS011;30314;48.184;11.510;2024-01-11T11:01:02;56.50;;;19.83;;
7661;SDS011;30314;48.184;11.510;2024-01-11T11:03:30;88.57;;;23.17;;
7661;SDS011;30314;48.184;11.510;2024-01-11T11:05:58;76.73;;;24.60;;
7661;SDS011;30314;48.184;11.510;2024-01-11T11:08:25;63.73;;;21.37;;
7661;SDS011;30314;48.184;11.510;2024-01-11T11:11:01;69.63;;;22.43;;
7661;SDS011;30314;48.184;11.510;2024-01-11T11:13:31;63.13;;;20.93;;
7661;SDS011;30314;48.184;11.510;2024-01-11T11:15:58;65.73;;;22.87;;
7661;SDS011;30314;48.184;11.510;2024-01-11T11:18:27;70.00;;;23.10;;
7661;SDS011;30314;48.184;11.510;2024-01-11T11:20:54;78.90;;;25.00;;
7661;SDS011;30314;48.184;11.510;2024-01-11T11:23:21;75.03;;;25.60;;
7661;SDS011;30314;48.184;11.510;2024-01-11T11:25:48;64.83;;;24.87;;
7661;SDS011;30314;48.184;11.510;2024-01-11T11:28:16;60.50;;;23.13;;
7661;SDS011;30314;48.184;11.510;2024-01-11T11:30:44;72.53;;;23.10;;
7661;SDS011;30314;48.184;11.510;2024-01-11T11:33:23;75.30;;;25.53;;
7661;SDS011;30314;48.184;11.510;2024-01-11T11:35:54;72.83;;;24.20;;
7661;SDS011;30314;48.184;11.510;2024-01-11T11:38:28;60.10;;;22.47;;
7661;SDS011;30314;48.184;11.510;2024-01-11T11:40:57;58.17;;;21.83;;
7661;SDS011;30314;48.184;11.510;2024-01-11T11:43:26;62.93;;;22.67;;
7661;SDS011;30314;48.184;11.510;2024-01-11T11:45:53;69.23;;;23.27;;
7661;SDS011;30314;48.184;11.510;2024-01-11T11:53:33;69.20;;;27.50;;
7661;SDS011;30314;48.184;11.510;2024-01-11T11:56:03;64.17;;;23.90;;
7661;SDS011;30314;48.184;11.510;2024-01-11T11:58:31;69.03;;;26.03;;
7661;SDS011;30314;48.184;11.510;2024-01-11T12:01:00;71.37;;;26.23;;
7661;SDS011;30314;48.184;11.510;2024-01-11T12:03:29;77.40;;;25.50;;
7661;SDS011;30314;48.184;11.510;2024-01-11T12:05:58;78.33;;;26.93;;
7661;SDS011;30314;48.184;11.510;2024-01-11T12:08:26;64.70;;;25.13;;
7661;SDS011;30314;48.184;11.510;2024-01-11T12:10:53;65.30;;;22.30;;
7661;SDS011;30314;48.184;11.510;2024-01-11T12:13:20;62.83;;;24.27;;
7661;SDS011;30314;48.184;11.510;2024-01-11T12:15:47;72.63;;;24.57;;
7661;SDS011;30314;48.184;11.510;2024-01-11T12:18:13;61.53;;;24.73;;
7661;SDS011;30314;48.184;11.510;2024-01-11T12:20:40;73.97;;;26.60;;
7661;SDS011;30314;48.184;11.510;2024-01-11T12:26:06;75.17;;;26.43;;
7661;SDS011;30314;48.184;11.510;2024-01-11T12:28:34;78.90;;;27.43;;
7661;SDS011;30314;48.184;11.510;2024-01-11T12:31:00;62.43;;;25.57;;
7661;SDS011;30314;48.184;11.510;2024-01-11T12:33:27;57.10;;;22.17;;
7661;SDS011;30314;48.184;11.510;2024-01-11T12:35:54;70.67;;;24.10;;
7661;SDS011;30314;48.184;11.510;2024-01-11T12:38:21;65.17;;;22.93;;
7661;SDS011;30314;48.184;11.510;2024-01-11T12:40:48;61.77;;;22.77;;
7661;SDS011;30314;48.184;11.510;2024-01-11T12:43:15;88.23;;;26.43;;
7661;SDS011;30314;48.184;11.510;2024-01-11T12:45:42;73.83;;;25.17;;
7661;SDS011;30314;48.184;11.510;2024-01-11T12:48:11;69.77;;;24.67;;
7661;SDS011;30314;48.184;11.510;2024-01-11T12:50:41;65.77;;;24.83;;
7661;SDS011;30314;48.184;11.510;2024-01-11T12:53:08;73.87;;;26.57;;
7661;SDS011;30314;48.184;11.510;2024-01-11T12:56:02;68.60;;;23.60;;
7661;SDS011;30314;48.184;11.510;2024-01-11T12:58:35;62.03;;;23.93;;
7661;SDS011;30314;48.184;11.510;2024-01-11T13:01:01;74.67;;;25.30;;
7661;SDS011;30314;48.184;11.510;2024-01-11T13:03:29;59.30;;;22.97;;
7661;SDS011;30314;48.184;11.510;2024-01-11T13:05:56;80.83;;;27.20;;
7661;SDS011;30314;48.184;11.510;2024-01-11T13:08:23;67.00;;;26.40;;
7661;SDS011;30314;48.184;11.510;2024-01-11T13:10:50;64.17;;;25.57;;
7661;SDS011;30314;48.184;11.510;2024-01-11T13:13:16;69.43;;;27.27;;
7661;SDS011;30314;48.184;11.510;2024-01-11T13:15:44;62.90;;;25.70;;
7661;SDS011;30314;48.184;11.510;2024-01-11T13:18:11;63.93;;;25.47;;
7661;SDS011;30314;48.184;11.510;2024-01-11T13:20:38;67.63;;;24.90;;
7661;SDS011;30314;48.184;11.510;2024-01-11T13:23:14;82.57;;;26.13;;
7661;SDS011;30314;48.184;11.510;2024-01-11T13:25:48;74.00;;;24.30;;
7661;SDS011;30314;48.184;11.510;2024-01-11T13:28:16;81.53;;;26.20;;
7661;SDS011;30314;48.184;11.510;2024-01-11T13:30:44;63.93;;;25.77;;
7661;SDS011;30314;48.184;11.510;2024-01-11T13:33:12;74.87;;;27.30;;
7661;SDS011;30314;48.184;11.510;2024-01-11T13:35:39;64.07;;;25.50;;
7661;SDS011;30314;48.184;11.510;2024-01-11T13:38:07;75.33;;;27.47;;
7661;SDS011;30314;48.184;11.510;2024-01-11T13:40:34;76.00;;;26.70;;
7661;SDS011;30314;48.184;11.510;2024-01-11T13:43:01;65.30;;;25.83;;
7661;SDS011;30314;48.184;11.510;2024-01-11T13:45:29;69.63;;;26.33;;
7661;SDS011;30314;48.184;11.510;2024-01-11T13:47:56;86.00;;;29.67;;
7661;SDS011;30314;48.184;11.510;2024-01-11T13:50:23;99.97;;;33.00;;
7661;SDS011;30314;48.184;11.510;2024-01-11T13:52:53;65.87;;;26.47;;
7661;SDS011;30314;48.184;11.510;2024-01-11T13:55:20;78.60;;;27.53;;
7661;SDS011;30314;48.184;11.510;2024-01-11T13:57:51;70.77;;;23.97;;
7661;SDS011;30314;48.184;11.510;2024-01-11T14:00:20;68.60;;;27.00;;
7661;SDS011;30314;48.184;11.510;2024-01-11T14:02:47;79.60;;;27.53;;
7661;SDS011;30314;48.184;11.510;2024-01-11T14:05:14;75.27;;;27.33;;
7661;SDS011;30314;48.184;11.510;2024-01-11T14:07:44;98.63;;;30.10;;
7661;SDS011;30314;48.184;11.510;2024-01-11T14:10:12;80.10;;;29.10;;
7661;SDS011;30314;48.184;11.510;2024-01-11T14:12:40;81.43;;;28.20;;
7661;SDS011;30314;48.184;11.510;2024-01-11T14:15:08;82.97;;;29.60;;
7661;SDS011;30314;48.184;11.510;2024-01-11T14:17:39;79.53;;;29.40;;
7661;SDS011;30314;48.184;11.510;2024-01-11T14:20:07;78.90;;;28.60;;
7661;SDS011;30314;48.184;11.510;2024-01-11T14:22:41;77.37;;;28.27;;
7661;SDS011;30314;48.184;11.510;2024-01-11T14:25:09;75.50;;;27.17;;
7661;SDS011;30314;48.184;11.510;2024-01-11T14:27:38;75.90;;;28.67;;
7661;SDS011;30314;48.184;11.510;2024-01-11T14:30:05;71.40;;;27.00;;
7661;SDS011;30314;48.184;11.510;2024-01-11T14:32:33;74.97;;;27.60;;